sensor_id;sensor_type;location;lat;lon;timestamp;temperature;humidity
7248;DHT22;3665;51.034;13.642;2024-03-08T00:02:16;-0.70;84.50
7248;DHT22;3665;51.034;13.642;2024-03-08T00:07:03;-0.90;99.90
7248;DHT22;3665;51.034;13.642;2024-03-08T00:11:47;-1.00;99.90
7248;DHT22;3665;51.034;13.642;2024-03-08T00:16:39;-1.20;99.90
7248;DHT22;3665;51.034;13.642;2024-03-08T00:21:26;-1.30;99.90
7248;DHT22;3665;51.034;13.642;2024-03-08T00:26:11;-1.50;99.90
7248;DHT22;3665;51.034;13.642;2024-03-08T00:30:57;-1.60;99.90
7248;DHT22;3665;51.034;13.642;2024-03-08T00:35:45;-1.60;99.90
7248;DHT22;3665;51.034;13.642;2024-03-08T00:40:42;-1.70;99.90
7248;DHT22;3665;51.034;13.642;2024-03-08T00:45:27;-1.80;1.00
7248;DHT22;3665;51.034;13.642;2024-03-08T00:50:15;-1.80;1.00
7248;DHT22;3665;51.034;13.642;2024-03-08T00:55:05;-1.80;1.00
7248;DHT22;3665;51.034;13.642;2024-03-08T00:59:52;-1.80;1.00
7248;DHT22;3665;51.034;13.642;2024-03-08T01:04:41;-1.90;1.00
7248;DHT22;3665;51.034;13.642;2024-03-08T01:09:25;-1.80;1.00
7248;DHT22;3665;51.034;13.642;2024-03-08T01:14:09;-1.80;1.00
7248;DHT22;3665;51.034;13.642;2024-03-08T01:19:05;-1.80;1.00
7248;DHT22;3665;51.034;13.642;2024-03-08T01:23:53;-1.80;1.00
7248;DHT22;3665;51.034;13.642;2024-03-08T01:28:42;-1.70;1.00
7248;DHT22;3665;51.034;13.642;2024-03-08T01:33:27;-1.50;1.00
7248;DHT22;3665;51.034;13.642;2024-03-08T01:38:11;-1.50;1.00
7248;DHT22;3665;51.034;13.642;2024-03-08T01:48:08;-1.50;1.00
7248;DHT22;3665;51.034;13.642;2024-03-08T01:52:52;-1.50;1.00
7248;DHT22;3665;51.034;13.642;2024-03-08T01:57:44;-1.60;1.00
7248;DHT22;3665;51.034;13.642;2024-03-08T02:02:27;-1.70;1.00
7248;DHT22;3665;51.034;13.642;2024-03-08T02:07:23;-1.70;1.00
7248;DHT22;3665;51.034;13.642;2024-03-08T02:12:10;-1.70;1.00
7248;DHT22;3665;51.034;13.642;2024-03-08T02:17:00;-1.70;1.00
7248;DHT22;3665;51.034;13.642;2024-03-08T02:21:46;-1.80;1.00
7248;DHT22;3665;51.034;13.642;2024-03-08T02:26:31;-1.90;1.00
7248;DHT22;3665;51.034;13.642;2024-03-08T02:31:18;-2.00;1.00
7248;DHT22;3665;51.034;13.642;2024-03-08T02:36:07;-2.00;1.00
7248;DHT22;3665;51.034;13.642;2024-03-08T02:41:00;-2.00;1.00
7248;DHT22;3665;51.034;13.642;2024-03-08T02:45:43;-1.90;1.00
7248;DHT22;3665;51.034;13.642;2024-03-08T02:50:33;-1.80;1.00
7248;DHT22;3665;51.034;13.642;2024-03-08T02:55:20;-1.80;1.00
7248;DHT22;3665;51.034;13.642;2024-03-08T03:00:09;-1.60;1.00
7248;DHT22;3665;51.034;13.642;2024-03-08T03:04:54;-1.50;1.00
7248;DHT22;3665;51.034;13.642;2024-03-08T03:09:42;-1.40;1.00
7248;DHT22;3665;51.034;13.642;2024-03-08T03:14:25;-1.40;1.00
7248;DHT22;3665;51.034;13.642;2024-03-08T03:19:19;-1.40;99.90
7248;DHT22;3665;51.034;13.642;2024-03-08T03:24:03;-1.50;99.90
7248;DHT22;3665;51.034;13.642;2024-03-08T03:29:05;-1.50;1.00
7248;DHT22;3665;51.034;13.642;2024-03-08T03:33:53;-1.40;1.00
7248;DHT22;3665;51.034;13.642;2024-03-08T03:38:47;-1.40;99.90
7248;DHT22;3665;51.034;13.642;2024-03-08T03:43:37;-1.40;99.90
7248;DHT22;3665;51.034;13.642;2024-03-08T03:48:24;-1.50;99.90
7248;DHT22;3665;51.034;13.642;2024-03-08T03:53:11;-1.60;99.90
7248;DHT22;3665;51.034;13.642;2024-03-08T03:57:59;-1.60;99.90
7248;DHT22;3665;51.034;13.642;2024-03-08T04:02:43;-1.80;99.90
7248;DHT22;3665;51.034;13.642;2024-03-08T04:07:28;-1.80;99.90
7248;DHT22;3665;51.034;13.642;2024-03-08T04:12:24;-2.00;1.00
7248;DHT22;3665;51.034;13.642;2024-03-08T04:17:12;-2.10;1.00
7248;DHT22;3665;51.034;13.642;2024-03-08T04:21:59;-1.90;1.00
7248;DHT22;3665;51.034;13.642;2024-03-08T04:26:47;-2.00;99.90
7248;DHT22;3665;51.034;13.642;2024-03-08T04:31:37;-2.20;1.00
7248;DHT22;3665;51.034;13.642;2024-03-08T04:36:24;-2.30;1.00
7248;DHT22;3665;51.034;13.642;2024-03-08T04:41:14;-2.40;1.00
7248;DHT22;3665;51.034;13.642;2024-03-08T04:45:57;-2.50;1.00
7248;DHT22;3665;51.034;13.642;2024-03-08T04:50:41;-2.50;1.00
7248;DHT22;3665;51.034;13.642;2024-03-08T04:55:37;-2.50;1.00
7248;DHT22;3665;51.034;13.642;2024-03-08T05:00:26;-2.40;1.00
7248;DHT22;3665;51.034;13.642;2024-03-08T05:05:13;-2.50;1.00
7248;DHT22;3665;51.034;13.642;2024-03-08T05:09:57;-2.60;1.00
7248;DHT22;3665;51.034;13.642;2024-03-08T05:14:48;-2.70;1.00
7248;DHT22;3665;51.034;13.642;2024-03-08T05:19:35;-2.70;1.00
7248;DHT22;3665;51.034;13.642;2024-03-08T05:24:25;-2.70;1.00
7248;DHT22;3665;51.034;13.642;2024-03-08T05:29:10;-2.60;1.00
7248;DHT22;3665;51.034;13.642;2024-03-08T05:33:56;-2.50;1.00
7248;DHT22;3665;51.034;13.642;2024-03-08T05:38:41;-2.40;1.00
7248;DHT22;3665;51.034;13.642;2024-03-08T05:43:25;-2.40;1.00
7248;DHT22;3665;51.034;13.642;2024-03-08T05:48:09;-2.40;1.00
7248;DHT22;3665;51.034;13.642;2024-03-08T05:52:56;-2.40;1.00
7248;DHT22;3665;51.034;13.642;2024-03-08T05:57:45;-2.30;1.00
7248;DHT22;3665;51.034;13.642;2024-03-08T06:02:32;-2.30;1.00
7248;DHT22;3665;51.034;13.642;2024-03-08T06:07:16;-2.20;1.00
7248;DHT22;3665;51.034;13.642;2024-03-08T06:12:04;-2.00;1.00
7248;DHT22;3665;51.034;13.642;2024-03-08T06:16:53;-1.80;1.00
7248;DHT22;3665;51.034;13.642;2024-03-08T06:21:38;-1.70;1.00
7248;DHT22;3665;51.034;13.642;2024-03-08T06:26:28;-1.50;1.00
7248;DHT22;3665;51.034;13.642;2024-03-08T06:31:14;-1.20;99.90
7248;DHT22;3665;51.034;13.642;2024-03-08T06:36:02;-1.30;99.90
7248;DHT22;3665;51.034;13.642;2024-03-08T06:40:49;-1.20;99.90
7248;DHT22;3665;51.034;13.642;2024-03-08T06:45:36;-1.00;99.90
7248;DHT22;3665;51.034;13.642;2024-03-08T06:50:32;-0.90;99.90
7248;DHT22;3665;51.034;13.642;2024-03-08T06:55:17;-0.70;99.90
7248;DHT22;3665;51.034;13.642;2024-03-08T07:00:01;-0.50;99.90
7248;DHT22;3665;51.034;13.642;2024-03-08T07:04:49;-0.40;99.90
7248;DHT22;3665;51.034;13.642;2024-03-08T07:09:46;-0.20;99.90
7248;DHT22;3665;51.034;13.642;2024-03-08T07:14:31;0.10;99.90
7248;DHT22;3665;51.034;13.642;2024-03-08T07:19:14;0.10;64.00
7248;DHT22;3665;51.034;13.642;2024-03-08T07:24:04;0.40;42.90
7248;DHT22;3665;51.034;13.642;2024-03-08T07:29:04;0.70;1.00
7248;DHT22;3665;51.034;13.642;2024-03-08T07:33:55;0.90;1.00
7248;DHT22;3665;51.034;13.642;2024-03-08T07:38:41;1.00;1.00
7248;DHT22;3665;51.034;13.642;2024-03-08T07:43:29;1.20;1.00
7248;DHT22;3665;51.034;13.642;2024-03-08T07:48:24;1.50;1.00
7248;DHT22;3665;51.034;13.642;2024-03-08T07:53:08;1.80;1.00
7248;DHT22;3665;51.034;13.642;2024-03-08T07:57:52;2.10;1.00
7248;DHT22;3665;51.034;13.642;2024-03-08T08:02:40;2.30;1.00
7248;DHT22;3665;51.034;13.642;2024-03-08T08:07:28;2.50;1.00
7248;DHT22;3665;51.034;13.642;2024-03-08T08:12:16;2.70;1.00
7248;DHT22;3665;51.034;13.642;2024-03-08T08:17:12;2.90;1.00
7248;DHT22;3665;51.034;13.642;2024-03-08T08:22:01;3.20;1.00
7248;DHT22;3665;51.034;13.642;2024-03-08T08:26:46;3.40;1.00
7248;DHT22;3665;51.034;13.642;2024-03-08T08:31:34;3.70;1.00
7248;DHT22;3665;51.034;13.642;2024-03-08T08:36:23;3.90;1.00
7248;DHT22;3665;51.034;13.642;2024-03-08T08:41:12;4.00;1.00
7248;DHT22;3665;51.034;13.642;2024-03-08T08:45:59;4.20;1.00
7248;DHT22;3665;51.034;13.642;2024-03-08T08:50:49;4.50;1.00
7248;DHT22;3665;51.034;13.642;2024-03-08T08:55:34;4.60;1.00
7248;DHT22;3665;51.034;13.642;2024-03-08T09:00:29;4.90;1.00
7248;DHT22;3665;51.034;13.642;2024-03-08T09:05:16;5.20;1.00
7248;DHT22;3665;51.034;13.642;2024-03-08T09:10:08;5.30;1.00
7248;DHT22;3665;51.034;13.642;2024-03-08T09:16:14;5.60;1.00
7248;DHT22;3665;51.034;13.642;2024-03-08T09:21:50;6.10;1.00
7248;DHT22;3665;51.034;13.642;2024-03-08T09:26:54;6.40;1.00
7248;DHT22;3665;51.034;13.642;2024-03-08T09:31:53;6.90;1.00
7248;DHT22;3665;51.034;13.642;2024-03-08T09:42:09;7.30;1.00
7248;DHT22;3665;51.034;13.642;2024-03-08T09:47:22;7.50;1.00
7248;DHT22;3665;51.034;13.642;2024-03-08T09:52:39;7.80;1.00
7248;DHT22;3665;51.034;13.642;2024-03-08T09:57:29;8.20;1.00
7248;DHT22;3665;51.034;13.642;2024-03-08T10:02:17;8.30;1.00
7248;DHT22;3665;51.034;13.642;2024-03-08T10:07:24;8.20;1.00
7248;DHT22;3665;51.034;13.642;2024-03-08T10:12:09;8.40;1.00
7248;DHT22;3665;51.034;13.642;2024-03-08T10:16:58;8.40;1.00
7248;DHT22;3665;51.034;13.642;2024-03-08T10:21:50;8.60;1.00
7248;DHT22;3665;51.034;13.642;2024-03-08T10:26:48;8.70;1.00
7248;DHT22;3665;51.034;13.642;2024-03-08T10:31:38;8.70;1.00
7248;DHT22;3665;51.034;13.642;2024-03-08T10:36:25;8.80;1.00
7248;DHT22;3665;51.034;13.642;2024-03-08T10:41:12;8.90;1.00
7248;DHT22;3665;51.034;13.642;2024-03-08T10:46:06;8.90;1.00
7248;DHT22;3665;51.034;13.642;2024-03-08T10:51:27;9.30;1.00
7248;DHT22;3665;51.034;13.642;2024-03-08T10:56:23;9.30;1.00
7248;DHT22;3665;51.034;13.642;2024-03-08T11:01:11;9.50;1.00
7248;DHT22;3665;51.034;13.642;2024-03-08T11:05:55;9.80;1.00
7248;DHT22;3665;51.034;13.642;2024-03-08T11:10:48;10.00;1.00
7248;DHT22;3665;51.034;13.642;2024-03-08T11:15:39;10.10;1.00
7248;DHT22;3665;51.034;13.642;2024-03-08T11:20:24;10.30;1.00
7248;DHT22;3665;51.034;13.642;2024-03-08T11:25:09;10.30;1.00
7248;DHT22;3665;51.034;13.642;2024-03-08T11:30:05;10.20;1.00
7248;DHT22;3665;51.034;13.642;2024-03-08T11:34:59;10.30;1.00
7248;DHT22;3665;51.034;13.642;2024-03-08T11:39:48;10.30;1.00
7248;DHT22;3665;51.034;13.642;2024-03-08T11:44:32;10.30;1.00
7248;DHT22;3665;51.034;13.642;2024-03-08T11:49:16;10.40;1.00
7248;DHT22;3665;51.034;13.642;2024-03-08T11:54:00;10.60;1.00
7248;DHT22;3665;51.034;13.642;2024-03-08T11:58:53;10.70;1.00
7248;DHT22;3665;51.034;13.642;2024-03-08T12:03:39;10.80;1.00
7248;DHT22;3665;51.034;13.642;2024-03-08T12:08:26;10.80;1.00
7248;DHT22;3665;51.034;13.642;2024-03-08T12:13:10;10.80;1.00
7248;DHT22;3665;51.034;13.642;2024-03-08T12:17:56;10.80;1.00
7248;DHT22;3665;51.034;13.642;2024-03-08T12:22:41;10.80;1.00
7248;DHT22;3665;51.034;13.642;2024-03-08T12:27:26;11.00;1.00
7248;DHT22;3665;51.034;13.642;2024-03-08T12:32:10;11.10;1.00
7248;DHT22;3665;51.034;13.642;2024-03-08T12:36:54;11.10;1.00
7248;DHT22;3665;51.034;13.642;2024-03-08T12:41:39;11.20;1.00
7248;DHT22;3665;51.034;13.642;2024-03-08T12:46:24;11.10;1.00
7248;DHT22;3665;51.034;13.642;2024-03-08T12:51:08;10.90;1.00
7248;DHT22;3665;51.034;13.642;2024-03-08T12:55:52;10.90;1.00
7248;DHT22;3665;51.034;13.642;2024-03-08T13:00:38;11.00;1.00
7248;DHT22;3665;51.034;13.642;2024-03-08T13:05:26;10.90;1.00
7248;DHT22;3665;51.034;13.642;2024-03-08T13:10:10;11.00;1.00
7248;DHT22;3665;51.034;13.642;2024-03-08T13:14:56;11.10;1.00
7248;DHT22;3665;51.034;13.642;2024-03-08T13:19:40;11.10;1.00
7248;DHT22;3665;51.034;13.642;2024-03-08T13:24:25;11.10;1.00
7248;DHT22;3665;51.034;13.642;2024-03-08T13:29:08;11.20;1.00
7248;DHT22;3665;51.034;13.642;2024-03-08T13:33:52;11.20;1.00
7248;DHT22;3665;51.034;13.642;2024-03-08T13:38:42;11.20;1.00
7248;DHT22;3665;51.034;13.642;2024-03-08T13:43:28;11.20;1.00
7248;DHT22;3665;51.034;13.642;2024-03-08T13:48:11;11.00;1.00
7248;DHT22;3665;51.034;13.642;2024-03-08T13:52:55;11.00;1.00
7248;DHT22;3665;51.034;13.642;2024-03-08T13:57:39;10.90;1.00
7248;DHT22;3665;51.034;13.642;2024-03-08T14:02:23;10.70;1.00
7248;DHT22;3665;51.034;13.642;2024-03-08T14:07:10;10.70;1.00
7248;DHT22;3665;51.034;13.642;2024-03-08T14:11:53;10.70;1.00
7248;DHT22;3665;51.034;13.642;2024-03-08T14:16:37;10.60;1.00
7248;DHT22;3665;51.034;13.642;2024-03-08T14:21:22;10.80;1.00
7248;DHT22;3665;51.034;13.642;2024-03-08T14:26:08;10.80;1.00
7248;DHT22;3665;51.034;13.642;2024-03-08T14:36:25;10.60;1.00
7248;DHT22;3665;51.034;13.642;2024-03-08T14:41:13;10.70;1.00
7248;DHT22;3665;51.034;13.642;2024-03-08T14:46:01;10.80;1.00
7248;DHT22;3665;51.034;13.642;2024-03-08T14:50:48;10.70;1.00
7248;DHT22;3665;51.034;13.642;2024-03-08T14:56:01;10.80;1.00
7248;DHT22;3665;51.034;13.642;2024-03-08T15:00:57;10.70;1.00
7248;DHT22;3665;51.034;13.642;2024-03-08T15:05:45;10.60;1.00
7248;DHT22;3665;51.034;13.642;2024-03-08T15:10:49;10.50;1.00
7248;DHT22;3665;51.034;13.642;2024-03-08T15:15:42;10.60;1.00
7248;DHT22;3665;51.034;13.642;2024-03-08T15:20:26;10.60;1.00
7248;DHT22;3665;51.034;13.642;2024-03-08T15:25:21;10.30;1.00
7248;DHT22;3665;51.034;13.642;2024-03-08T15:30:19;10.30;1.00
7248;DHT22;3665;51.034;13.642;2024-03-08T15:35:29;10.00;1.00
7248;DHT22;3665;51.034;13.642;2024-03-08T15:40:38;9.70;1.00
7248;DHT22;3665;51.034;13.642;2024-03-08T15:45:28;9.30;1.00
7248;DHT22;3665;51.034;13.642;2024-03-08T15:50:34;9.00;1.00
7248;DHT22;3665;51.034;13.642;2024-03-08T15:55:22;8.70;1.00
7248;DHT22;3665;51.034;13.642;2024-03-08T16:00:12;8.60;1.00
7248;DHT22;3665;51.034;13.642;2024-03-08T16:05:01;8.40;1.00
7248;DHT22;3665;51.034;13.642;2024-03-08T16:09:51;8.30;1.00
7248;DHT22;3665;51.034;13.642;2024-03-08T16:14:36;8.30;1.00
7248;DHT22;3665;51.034;13.642;2024-03-08T16:19:25;8.20;1.00
7248;DHT22;3665;51.034;13.642;2024-03-08T16:24:13;8.10;1.00
7248;DHT22;3665;51.034;13.642;2024-03-08T16:29:10;7.90;1.00
7248;DHT22;3665;51.034;13.642;2024-03-08T16:34:05;7.60;1.00
7248;DHT22;3665;51.034;13.642;2024-03-08T16:38:52;7.60;1.00
7248;DHT22;3665;51.034;13.642;2024-03-08T16:44:03;7.30;1.00
7248;DHT22;3665;51.034;13.642;2024-03-08T16:49:03;7.30;1.00
7248;DHT22;3665;51.034;13.642;2024-03-08T16:53:49;7.20;1.00
7248;DHT22;3665;51.034;13.642;2024-03-08T16:58:36;7.00;1.00
7248;DHT22;3665;51.034;13.642;2024-03-08T17:03:22;6.70;1.00
7248;DHT22;3665;51.034;13.642;2024-03-08T17:08:14;6.60;1.00
7248;DHT22;3665;51.034;13.642;2024-03-08T17:13:02;6.60;1.00
7248;DHT22;3665;51.034;13.642;2024-03-08T17:17:49;6.50;1.00
7248;DHT22;3665;51.034;13.642;2024-03-08T17:22:37;6.20;1.00
7248;DHT22;3665;51.034;13.642;2024-03-08T17:27:24;6.10;1.00
7248;DHT22;3665;51.034;13.642;2024-03-08T17:32:13;6.00;1.00
7248;DHT22;3665;51.034;13.642;2024-03-08T17:37:02;5.80;1.00
7248;DHT22;3665;51.034;13.642;2024-03-08T17:41:50;5.90;1.00
7248;DHT22;3665;51.034;13.642;2024-03-08T17:46:38;5.90;1.00
7248;DHT22;3665;51.034;13.642;2024-03-08T17:51:24;5.80;1.00
7248;DHT22;3665;51.034;13.642;2024-03-08T17:56:13;5.70;1.00
7248;DHT22;3665;51.034;13.642;2024-03-08T18:01:00;5.50;1.00
7248;DHT22;3665;51.034;13.642;2024-03-08T18:05:50;5.30;1.00
7248;DHT22;3665;51.034;13.642;2024-03-08T18:10:37;5.00;1.00
7248;DHT22;3665;51.034;13.642;2024-03-08T18:15:27;4.80;1.00
7248;DHT22;3665;51.034;13.642;2024-03-08T18:20:13;4.70;1.00
7248;DHT22;3665;51.034;13.642;2024-03-08T18:25:09;4.60;1.00
7248;DHT22;3665;51.034;13.642;2024-03-08T18:30:06;4.60;1.00
7248;DHT22;3665;51.034;13.642;2024-03-08T18:34:53;4.50;1.00
7248;DHT22;3665;51.034;13.642;2024-03-08T18:39:44;4.50;1.00
7248;DHT22;3665;51.034;13.642;2024-03-08T18:44:38;4.60;1.00
7248;DHT22;3665;51.034;13.642;2024-03-08T18:49:32;4.80;1.00
7248;DHT22;3665;51.034;13.642;2024-03-08T18:54:23;4.60;1.00
7248;DHT22;3665;51.034;13.642;2024-03-08T18:59:08;4.50;1.00
7248;DHT22;3665;51.034;13.642;2024-03-08T19:04:01;4.40;1.00
7248;DHT22;3665;51.034;13.642;2024-03-08T19:08:58;4.40;1.00
7248;DHT22;3665;51.034;13.642;2024-03-08T19:13:49;4.40;1.00
7248;DHT22;3665;51.034;13.642;2024-03-08T19:18:39;4.30;1.00
7248;DHT22;3665;51.034;13.642;2024-03-08T19:24:01;4.30;1.00
7248;DHT22;3665;51.034;13.642;2024-03-08T19:28:45;4.20;1.00
7248;DHT22;3665;51.034;13.642;2024-03-08T19:33:35;4.30;1.00
7248;DHT22;3665;51.034;13.642;2024-03-08T19:38:21;4.60;1.00
7248;DHT22;3665;51.034;13.642;2024-03-08T19:43:32;4.60;1.00
7248;DHT22;3665;51.034;13.642;2024-03-08T19:48:46;4.90;1.00
7248;DHT22;3665;51.034;13.642;2024-03-08T19:53:35;5.00;1.00
7248;DHT22;3665;51.034;13.642;2024-03-08T19:58:35;5.10;1.00
7248;DHT22;3665;51.034;13.642;2024-03-08T20:03:25;5.10;1.00
7248;DHT22;3665;51.034;13.642;2024-03-08T20:08:17;5.00;1.00
7248;DHT22;3665;51.034;13.642;2024-03-08T20:13:23;5.00;1.00
7248;DHT22;3665;51.034;13.642;2024-03-08T20:24:05;4.80;1.00
7248;DHT22;3665;51.034;13.642;2024-03-08T20:34:42;4.50;1.00
7248;DHT22;3665;51.034;13.642;2024-03-08T20:39:45;4.50;1.00
7248;DHT22;3665;51.034;13.642;2024-03-08T20:44:31;4.40;1.00
7248;DHT22;3665;51.034;13.642;2024-03-08T20:49:17;4.30;1.00
7248;DHT22;3665;51.034;13.642;2024-03-08T20:54:05;4.20;1.00
7248;DHT22;3665;51.034;13.642;2024-03-08T20:58:59;4.20;1.00
7248;DHT22;3665;51.034;13.642;2024-03-08T21:03:56;4.20;1.00
7248;DHT22;3665;51.034;13.642;2024-03-08T21:08:48;4.10;1.00
7248;DHT22;3665;51.034;13.642;2024-03-08T21:13:49;4.00;1.00
7248;DHT22;3665;51.034;13.642;2024-03-08T21:18:38;4.00;1.00
7248;DHT22;3665;51.034;13.642;2024-03-08T21:23:42;4.10;1.00
7248;DHT22;3665;51.034;13.642;2024-03-08T21:28:32;3.90;1.00
7248;DHT22;3665;51.034;13.642;2024-03-08T21:33:17;4.00;1.00
7248;DHT22;3665;51.034;13.642;2024-03-08T21:38:06;3.90;1.00
7248;DHT22;3665;51.034;13.642;2024-03-08T21:42:53;3.80;1.00
7248;DHT22;3665;51.034;13.642;2024-03-08T21:47:43;3.80;1.00
7248;DHT22;3665;51.034;13.642;2024-03-08T21:53:00;3.80;1.00
7248;DHT22;3665;51.034;13.642;2024-03-08T21:57:49;3.80;1.00
7248;DHT22;3665;51.034;13.642;2024-03-08T22:02:36;3.70;1.00
7248;DHT22;3665;51.034;13.642;2024-03-08T22:07:30;3.90;1.00
7248;DHT22;3665;51.034;13.642;2024-03-08T22:12:16;3.70;1.00
7248;DHT22;3665;51.034;13.642;2024-03-08T22:17:19;3.80;1.00
7248;DHT22;3665;51.034;13.642;2024-03-08T22:22:05;3.70;1.00
7248;DHT22;3665;51.034;13.642;2024-03-08T22:26:54;3.80;1.00
7248;DHT22;3665;51.034;13.642;2024-03-08T22:31:43;3.80;1.00
7248;DHT22;3665;51.034;13.642;2024-03-08T22:36:46;3.90;1.00
7248;DHT22;3665;51.034;13.642;2024-03-08T22:41:42;3.90;1.00
7248;DHT22;3665;51.034;13.642;2024-03-08T22:46:40;3.80;1.00
7248;DHT22;3665;51.034;13.642;2024-03-08T22:51:25;3.80;1.00
7248;DHT22;3665;51.034;13.642;2024-03-08T22:56:32;3.80;1.00
7248;DHT22;3665;51.034;13.642;2024-03-08T23:01:16;3.70;1.00
7248;DHT22;3665;51.034;13.642;2024-03-08T23:06:02;3.60;1.00
7248;DHT22;3665;51.034;13.642;2024-03-08T23:11:21;3.70;1.00
7248;DHT22;3665;51.034;13.642;2024-03-08T23:16:15;3.60;1.00
7248;DHT22;3665;51.034;13.642;2024-03-08T23:21:00;3.50;1.00
7248;DHT22;3665;51.034;13.642;2024-03-08T23:25:50;3.60;1.00
7248;DHT22;3665;51.034;13.642;2024-03-08T23:30:38;3.50;1.00
7248;DHT22;3665;51.034;13.642;2024-03-08T23:36:00;3.50;1.00
7248;DHT22;3665;51.034;13.642;2024-03-08T23:40:44;3.40;1.00
7248;DHT22;3665;51.034;13.642;2024-03-08T23:57:05;3.40;1.00
